Bluefield, West Virginia
Current Conditions -  °F | °C
As of 5:52 PM on Saturday 22 Nov 2014 (Local Time) from KBLF Reporting Station
Clear Clear  
Wind Chill: 10°   Ceiling: Unl
Heat Index: 10°   Visibility: 10mi
Dew Point: -9°   Wind: 7mph
Humidity: 25%   Direction: 160°SSE
Pressure: 30.23"   Gusts: NA
Location:  37.27°N, 81.22°W
Report Text: KBLF 222252Z AUTO 16006KT 10SM CLR 10/M09 A3023 RMK AO2 SLP245 T01001094
Loading
Personal Weather Stations






























Interactive Weather Map New forecast layout! Learn more

10-Day Weather Forecast

Advertisements
Track Severe Weather on mobile